createdAt,value
2018-09-27T00:02:07.128Z,102025.95
2018-09-27T00:04:34.118Z,102025.08
2018-09-27T00:07:01.099Z,102017.30
2018-09-27T00:09:28.083Z,102017.69
2018-09-27T00:11:55.107Z,102023.91
2018-09-27T00:14:22.114Z,102024.21
2018-09-27T00:16:49.097Z,102017.58
2018-09-27T00:19:16.077Z,102022.75
2018-09-27T00:21:43.435Z,102023.61
2018-09-27T00:24:10.407Z,102017.49
2018-09-27T00:26:37.380Z,102012.16
2018-09-27T00:29:04.363Z,102021.97
2018-09-27T00:31:31.935Z,102013.78
2018-09-27T00:33:58.918Z,102021.21
2018-09-27T00:36:25.909Z,102017.31
2018-09-27T00:38:52.919Z,102017.90
2018-09-27T00:41:19.916Z,102021.02
2018-09-27T00:43:46.891Z,102022.36
2018-09-27T00:46:13.864Z,102009.91
2018-09-27T00:48:40.891Z,102024.11
2018-09-27T00:51:07.883Z,102020.43
2018-09-27T00:53:34.867Z,102018.77
2018-09-27T00:56:01.864Z,102023.52
2018-09-27T00:58:28.844Z,102025.19
2018-09-27T01:00:55.888Z,102015.26
2018-09-27T01:03:23.135Z,102027.83
2018-09-27T01:05:50.117Z,102020.63
2018-09-27T01:08:17.114Z,102013.40
2018-09-27T01:10:44.351Z,102016.33
2018-09-27T01:13:11.413Z,102018.09
2018-09-27T01:15:38.463Z,102010.59
2018-09-27T01:18:05.739Z,102018.78
2018-09-27T01:20:32.706Z,102023.64
2018-09-27T01:22:59.764Z,102021.98
2018-09-27T01:25:27.191Z,102022.77
2018-09-27T01:27:54.259Z,102015.02
2018-09-27T01:30:21.257Z,102019.56
2018-09-27T01:32:48.732Z,102013.55
2018-09-27T01:35:15.695Z,102016.08
2018-09-27T01:37:42.666Z,102016.92
2018-09-27T01:40:09.733Z,102020.99
2018-09-27T01:42:36.795Z,102008.53
2018-09-27T01:45:04.187Z,102008.06
2018-09-27T01:47:31.245Z,102005.84
2018-09-27T01:49:58.203Z,102012.48
2018-09-27T01:52:25.369Z,102010.70
2018-09-27T01:54:52.351Z,102000.30
2018-09-27T01:57:19.410Z,102007.22
2018-09-27T01:59:46.400Z,102015.02
2018-09-27T02:02:13.553Z,102010.63
2018-09-27T02:04:40.623Z,102010.31
2018-09-27T02:07:07.608Z,102008.56
2018-09-27T02:09:34.946Z,102003.70
2018-09-27T02:12:02.091Z,102011.57
2018-09-27T02:14:29.328Z,101999.11
2018-09-27T02:16:56.316Z,102004.95
2018-09-27T02:19:23.563Z,101998.72
2018-09-27T02:21:50.616Z,101996.30
2018-09-27T02:24:18.049Z,101997.17
2018-09-27T02:26:45.188Z,102007.02
2018-09-27T02:29:12.175Z,102004.29
2018-09-27T02:31:39.180Z,102002.04
2018-09-27T02:34:06.179Z,102006.90
2018-09-27T02:36:33.232Z,102002.55
2018-09-27T02:39:00.668Z,102004.77
2018-09-27T02:41:27.640Z,102002.64
2018-09-27T02:43:54.651Z,102001.17
2018-09-27T02:46:21.988Z,102006.91
2018-09-27T02:48:48.968Z,102003.50
2018-09-27T02:51:15.971Z,102002.05
2018-09-27T02:53:43.067Z,102003.31
2018-09-27T02:56:10.039Z,102008.45
2018-09-27T02:58:37.031Z,102004.09
2018-09-27T03:01:04.344Z,102005.95
2018-09-27T03:03:31.488Z,102002.83
2018-09-27T03:05:58.468Z,101999.43
2018-09-27T03:08:25.539Z,101994.84
2018-09-27T03:10:52.780Z,101996.30
2018-09-27T03:13:20.326Z,101995.80
2018-09-27T03:15:47.308Z,101995.09
2018-09-27T03:18:14.534Z,102000.27
2018-09-27T03:20:41.631Z,101998.22
2018-09-27T03:23:08.775Z,102002.02
2018-09-27T03:25:36.063Z,102001.26
2018-09-27T03:28:03.136Z,101997.14
2018-09-27T03:30:30.197Z,102000.02
2018-09-27T03:32:57.178Z,101995.09
2018-09-27T03:35:24.357Z,101995.29
2018-09-27T03:37:51.420Z,101997.14
2018-09-27T03:40:18.568Z,101997.66
2018-09-27T03:42:45.504Z,101998.61
2018-09-27T03:45:12.591Z,102003.08
2018-09-27T03:47:39.816Z,101995.02
2018-09-27T03:50:06.823Z,101986.83
2018-09-27T03:52:33.796Z,101985.95
2018-09-27T03:55:00.789Z,101985.87
2018-09-27T03:57:27.759Z,101984.89
2018-09-27T03:59:55.027Z,101986.35
2018-09-27T04:02:22.092Z,101982.95
2018-09-27T04:04:49.063Z,101977.81
2018-09-27T04:07:16.381Z,101974.38
2018-09-27T04:09:43.372Z,101982.75
2018-09-27T04:12:10.459Z,101977.89
2018-09-27T04:14:37.726Z,101975.95
2018-09-27T04:17:04.809Z,101965.72
2018-09-27T04:19:31.816Z,101965.35
2018-09-27T04:21:58.900Z,101961.64
2018-09-27T04:24:25.876Z,101968.16
2018-09-27T04:26:52.871Z,101974.09
2018-09-27T04:29:19.947Z,101972.03
2018-09-27T04:31:46.923Z,101975.75
2018-09-27T04:34:13.928Z,101977.61
2018-09-27T04:36:41.001Z,101977.79
2018-09-27T04:39:09.317Z,101983.91
2018-09-27T04:41:36.568Z,101973.80
2018-09-27T04:44:03.819Z,101966.12
2018-09-27T04:46:30.841Z,101973.70
2018-09-27T04:48:58.228Z,101975.24
2018-09-27T04:51:25.196Z,101978.56
2018-09-27T04:53:52.291Z,101984.56
2018-09-27T04:56:19.376Z,101983.30
2018-09-27T04:58:46.357Z,101986.32
2018-09-27T05:01:13.339Z,101981.95
2018-09-27T05:03:40.616Z,101978.73
2018-09-27T05:06:07.718Z,101984.45
2018-09-27T05:08:34.860Z,101987.26
2018-09-27T05:11:02.165Z,101991.55
2018-09-27T05:13:29.139Z,101999.34
2018-09-27T05:15:56.147Z,101993.02
2018-09-27T05:18:23.431Z,101987.28
2018-09-27T05:20:50.490Z,101987.94
2018-09-27T05:23:17.477Z,101987.82
2018-09-27T05:25:44.480Z,101984.91
2018-09-27T05:28:11.438Z,101989.97
2018-09-27T05:30:38.488Z,101969.80
2018-09-27T05:33:05.788Z,101989.45
2018-09-27T05:35:32.763Z,101988.59
2018-09-27T05:37:59.822Z,101993.25
2018-09-27T05:40:26.972Z,101990.24
2018-09-27T05:42:54.290Z,101991.80
2018-09-27T05:45:21.369Z,101993.97
2018-09-27T05:47:48.331Z,101994.92
2018-09-27T05:50:15.560Z,101978.76
2018-09-27T05:52:42.621Z,102002.69
2018-09-27T05:55:09.599Z,102004.08
2018-09-27T05:57:36.757Z,101997.76
2018-09-27T06:00:03.815Z,101996.98
2018-09-27T06:02:30.972Z,101994.14
2018-09-27T06:04:58.053Z,101993.39
2018-09-27T06:07:25.036Z,101987.73
2018-09-27T06:09:52.008Z,101990.86
2018-09-27T06:12:19.010Z,101994.05
2018-09-27T06:14:46.004Z,101990.28
2018-09-27T06:17:13.058Z,102000.78
2018-09-27T06:19:40.216Z,101999.34
2018-09-27T06:22:07.228Z,101999.41
2018-09-27T06:24:34.229Z,102001.54
2018-09-27T06:27:03.324Z,101997.87
2018-09-27T06:29:30.430Z,101999.13
2018-09-27T06:31:57.420Z,101995.34
2018-09-27T06:34:24.856Z,101991.75
2018-09-27T06:36:51.853Z,101998.83
2018-09-27T06:39:18.994Z,102001.16
2018-09-27T06:41:45.995Z,102002.34
2018-09-27T06:44:12.970Z,102000.22
2018-09-27T06:46:40.090Z,101998.84
2018-09-27T06:49:08.283Z,102004.70
2018-09-27T06:51:35.281Z,101991.38
2018-09-27T06:54:02.431Z,101995.77
2018-09-27T06:56:29.670Z,101995.77
2018-09-27T06:58:56.687Z,101995.46
2018-09-27T07:01:24.216Z,101989.80
2018-09-27T07:03:51.808Z,101990.31
2018-09-27T07:06:19.207Z,101991.17
2018-09-27T07:08:46.571Z,101988.17
2018-09-27T07:11:14.099Z,101991.44
2018-09-27T07:13:41.264Z,101987.98
2018-09-27T07:16:08.271Z,101986.82
2018-09-27T07:18:35.553Z,101991.45
2018-09-27T07:21:02.482Z,101993.92
2018-09-27T07:23:29.812Z,101992.75
2018-09-27T07:25:56.804Z,101989.92
2018-09-27T07:28:24.597Z,101992.53
2018-09-27T07:30:51.712Z,101994.12
2018-09-27T07:33:18.790Z,101995.76
2018-09-27T07:35:45.836Z,101996.65
2018-09-27T07:38:13.588Z,101996.60
2018-09-27T07:40:40.589Z,101999.81
2018-09-27T07:43:07.669Z,102002.16
2018-09-27T07:45:34.911Z,102009.14
2018-09-27T07:48:01.990Z,101999.84
2018-09-27T07:50:29.057Z,101998.66
2018-09-27T07:52:56.412Z,101998.86
2018-09-27T07:55:23.529Z,101999.84
2018-09-27T07:57:51.168Z,102000.14
2018-09-27T08:00:18.524Z,102002.07
2018-09-27T08:02:45.626Z,101997.93
2018-09-27T08:05:12.520Z,102002.68
2018-09-27T08:07:39.611Z,102005.03
2018-09-27T08:10:07.261Z,101987.13
2018-09-27T08:12:34.337Z,102001.72
2018-09-27T08:15:01.425Z,102008.64
2018-09-27T08:17:29.964Z,102007.56
2018-09-27T08:19:57.146Z,102005.12
2018-09-27T08:22:24.798Z,102003.50
2018-09-27T08:24:52.228Z,102001.34
2018-09-27T08:27:19.275Z,102006.40
2018-09-27T08:29:46.420Z,102010.31
2018-09-27T08:32:13.788Z,102008.94
2018-09-27T08:34:40.939Z,102007.19
2018-09-27T08:37:08.000Z,102008.37
2018-09-27T08:39:35.089Z,102001.25
2018-09-27T08:42:02.553Z,102008.84
2018-09-27T08:44:30.033Z,102004.85
2018-09-27T08:46:57.035Z,102010.00
2018-09-27T08:49:24.555Z,102005.61
2018-09-27T08:51:51.925Z,102006.31
2018-09-27T08:54:19.419Z,102003.23
2018-09-27T08:56:46.495Z,101998.72
2018-09-27T08:59:13.553Z,101994.25
2018-09-27T09:01:40.662Z,101994.91
2018-09-27T09:04:07.923Z,101987.85
2018-09-27T09:06:35.163Z,101984.86
2018-09-27T09:09:02.268Z,101975.39
2018-09-27T09:11:29.259Z,101984.91
2018-09-27T09:13:56.329Z,101984.75
2018-09-27T09:16:23.813Z,101978.41
2018-09-27T09:18:51.148Z,101979.03
2018-09-27T09:21:18.211Z,101974.55
2018-09-27T09:23:45.689Z,101972.52
2018-09-27T09:26:13.005Z,101971.51
2018-09-27T09:28:40.457Z,101970.31
2018-09-27T09:31:07.576Z,101970.41
2018-09-27T09:33:35.391Z,101964.07
2018-09-27T09:36:03.005Z,101958.04
2018-09-27T09:38:29.960Z,101953.23
2018-09-27T09:40:57.379Z,101952.55
2018-09-27T09:43:24.793Z,101944.06
2018-09-27T09:45:52.000Z,101944.17
2018-09-27T09:48:19.112Z,101938.50
2018-09-27T09:50:46.147Z,101943.13
2018-09-27T09:53:13.780Z,101938.99
2018-09-27T09:55:41.183Z,101930.91
2018-09-27T09:58:08.484Z,101930.42
2018-09-27T10:00:37.130Z,101934.13
2018-09-27T10:03:04.613Z,101933.08
2018-09-27T10:05:31.881Z,101935.00
2018-09-27T10:07:58.970Z,101926.58
2018-09-27T10:10:26.008Z,101920.77
2018-09-27T10:12:53.011Z,101921.09
2018-09-27T10:15:20.393Z,101913.50
2018-09-27T10:17:47.473Z,101921.19
2018-09-27T10:20:14.455Z,101894.33
2018-09-27T10:22:41.537Z,101903.39
2018-09-27T10:25:08.631Z,101903.79
2018-09-27T10:27:35.855Z,101897.87
2018-09-27T10:30:03.223Z,101904.69
2018-09-27T10:32:30.296Z,101905.16
2018-09-27T10:34:57.544Z,101893.52
2018-09-27T10:37:24.898Z,101900.73
2018-09-27T10:39:51.895Z,101894.63
2018-09-27T10:42:19.739Z,101891.37
2018-09-27T10:44:46.912Z,101896.02
2018-09-27T10:47:13.955Z,101897.19
2018-09-27T10:49:41.083Z,101891.17
2018-09-27T10:52:08.171Z,101882.83
2018-09-27T10:54:35.204Z,101889.30
2018-09-27T10:57:02.328Z,101879.42
2018-09-27T10:59:29.375Z,101871.38
2018-09-27T11:01:56.338Z,101878.31
2018-09-27T11:04:23.492Z,101876.17
2018-09-27T11:06:50.715Z,101877.48
2018-09-27T11:09:17.789Z,101877.23
2018-09-27T11:11:44.784Z,101868.93
2018-09-27T11:14:11.801Z,101864.66
2018-09-27T11:16:38.813Z,101856.97
2018-09-27T11:19:06.052Z,101847.34
2018-09-27T11:21:33.049Z,101849.39
2018-09-27T11:24:00.566Z,101838.94
2018-09-27T11:26:27.684Z,101842.76
2018-09-27T11:30:04.298Z,101845.11
2018-09-27T11:32:34.660Z,101831.52
2018-09-27T11:35:01.661Z,101824.94
2018-09-27T11:37:28.738Z,101823.59
2018-09-27T11:39:55.963Z,101809.42
2018-09-27T11:42:23.202Z,101808.45
2018-09-27T11:44:50.080Z,101801.76
2018-09-27T11:47:17.059Z,101804.05
2018-09-27T11:49:44.200Z,101793.53
2018-09-27T11:52:11.553Z,101791.59
2018-09-27T11:54:38.651Z,101784.94
2018-09-27T11:57:05.940Z,101777.70
2018-09-27T11:59:33.013Z,101777.14
2018-09-27T12:02:00.611Z,101780.16
2018-09-27T12:04:28.046Z,101773.19
2018-09-27T12:06:55.148Z,101774.89
2018-09-27T12:09:22.224Z,101782.26
2018-09-27T12:11:49.299Z,101762.79
2018-09-27T12:14:16.452Z,101762.79
2018-09-27T12:16:43.690Z,101766.34
2018-09-27T12:19:11.615Z,101761.42
2018-09-27T12:21:38.590Z,101751.33
2018-09-27T12:24:05.511Z,101751.46
2018-09-27T12:26:32.491Z,101744.81
2018-09-27T12:28:59.472Z,101736.53
2018-09-27T12:31:26.468Z,101736.80
2018-09-27T12:33:54.948Z,101736.80
2018-09-27T12:36:22.021Z,101733.97
2018-09-27T12:38:49.007Z,101732.06
2018-09-27T12:41:15.992Z,101729.13
2018-09-27T12:43:42.992Z,101722.02
2018-09-27T12:46:10.502Z,101721.61
2018-09-27T12:48:37.337Z,101710.06
2018-09-27T12:51:04.489Z,101707.32
2018-09-27T12:53:31.668Z,101703.27
2018-09-27T12:55:58.806Z,101696.92
2018-09-27T12:58:25.812Z,101698.29
2018-09-27T13:00:52.888Z,101699.16
2018-09-27T13:03:19.898Z,101697.44
2018-09-27T13:08:20.802Z,101694.59
2018-09-27T13:10:48.166Z,101690.77
2018-09-27T13:13:15.272Z,101680.58
2018-09-27T13:15:42.211Z,101684.98
2018-09-27T13:18:09.210Z,101667.62
2018-09-27T13:20:36.509Z,101668.77
2018-09-27T13:23:04.301Z,101661.93
2018-09-27T13:25:31.318Z,101662.05
2018-09-27T13:27:58.367Z,101655.14
2018-09-27T13:30:25.376Z,101661.59
2018-09-27T13:32:52.522Z,101659.20
2018-09-27T13:35:19.599Z,101660.99
2018-09-27T13:37:46.788Z,101656.19
2018-09-27T13:40:13.796Z,101655.27
2018-09-27T13:42:41.036Z,101661.36
2018-09-27T13:45:08.215Z,101658.28
2018-09-27T13:47:35.128Z,101649.89
2018-09-27T13:50:02.220Z,101645.99
2018-09-27T13:52:29.392Z,101647.44
2018-09-27T13:54:56.474Z,101640.73
2018-09-27T13:57:23.514Z,101635.62
2018-09-27T13:59:50.628Z,101630.69
2018-09-27T14:02:17.755Z,101626.41
2018-09-27T14:04:44.767Z,101626.41
2018-09-27T14:07:11.784Z,101623.23
2018-09-27T14:09:38.878Z,101621.44
2018-09-27T14:12:06.228Z,101609.77
2018-09-27T14:14:33.994Z,101614.41
2018-09-27T14:17:08.013Z,101610.95
2018-09-27T14:19:36.118Z,101608.58
2018-09-27T14:22:10.972Z,101605.62
2018-09-27T14:24:41.562Z,101607.80
2018-09-27T14:27:08.847Z,101603.06
2018-09-27T14:29:40.018Z,101594.48
2018-09-27T14:32:07.548Z,101597.03
2018-09-27T14:34:34.944Z,101593.45
2018-09-27T14:37:01.952Z,101595.59
2018-09-27T14:39:29.431Z,101593.86
2018-09-27T14:41:56.532Z,101593.09
2018-09-27T14:44:24.124Z,101586.55
2018-09-27T14:46:51.265Z,101578.16
2018-09-27T14:49:18.357Z,101579.20
2018-09-27T14:51:45.431Z,101583.59
2018-09-27T14:54:12.720Z,101571.88
2018-09-27T14:56:39.703Z,101572.86
2018-09-27T14:59:06.913Z,101568.87
2018-09-27T15:01:34.284Z,101569.70
2018-09-27T15:04:01.447Z,101573.07
2018-09-27T15:06:28.785Z,101571.67
2018-09-27T15:08:55.793Z,101572.46
2018-09-27T15:11:22.792Z,101569.91
2018-09-27T15:13:49.791Z,101559.10
2018-09-27T15:16:17.230Z,101556.44
2018-09-27T15:18:44.264Z,101556.48
2018-09-27T15:21:11.247Z,101553.02
2018-09-27T15:23:38.314Z,101549.61
2018-09-27T15:26:05.301Z,101550.23
2018-09-27T15:28:32.459Z,101545.95
2018-09-27T15:30:59.445Z,101544.08
2018-09-27T15:33:26.437Z,101541.14
2018-09-27T15:35:53.739Z,101541.48
2018-09-27T15:38:20.791Z,101536.34
2018-09-27T15:40:47.779Z,101537.54
2018-09-27T15:43:14.775Z,101524.63
2018-09-27T15:45:41.810Z,101524.14
2018-09-27T15:48:08.956Z,101524.48
2018-09-27T15:50:36.167Z,101520.66
2018-09-27T15:53:03.424Z,101509.53
2018-09-27T15:55:30.435Z,101511.75
2018-09-27T15:57:57.552Z,101510.80
2018-09-27T16:00:24.656Z,101504.80
2018-09-27T16:02:51.776Z,101497.16
2018-09-27T16:05:18.911Z,101500.16
2018-09-27T16:07:46.060Z,101492.93
2018-09-27T16:10:13.168Z,101492.86
2018-09-27T16:12:40.696Z,101495.89
2018-09-27T16:15:07.758Z,101489.85
2018-09-27T16:17:35.181Z,101489.81
2018-09-27T16:20:02.416Z,101490.22
2018-09-27T16:22:29.596Z,101484.19
2018-09-27T16:24:56.647Z,101486.73
2018-09-27T16:27:23.647Z,101480.77
2018-09-27T16:29:50.900Z,101482.79
2018-09-27T16:32:18.156Z,101485.67
2018-09-27T16:34:45.547Z,101479.91
2018-09-27T16:37:12.532Z,101476.42
2018-09-27T16:39:39.663Z,101476.42
2018-09-27T16:42:06.891Z,101479.09
2018-09-27T16:44:33.888Z,101473.26
2018-09-27T16:47:00.944Z,101478.23
2018-09-27T16:49:28.332Z,101485.67
2018-09-27T16:54:29.405Z,101478.17
2018-09-27T16:56:56.657Z,101478.28
2018-09-27T16:59:30.786Z,101471.86
2018-09-27T17:01:57.816Z,101466.42
2018-09-27T17:04:24.979Z,101461.48
2018-09-27T17:06:52.168Z,101458.00
2018-09-27T17:09:19.169Z,101457.54
2018-09-27T17:11:46.275Z,101453.47
2018-09-27T17:14:13.633Z,101451.45
2018-09-27T17:16:41.015Z,101450.64
2018-09-27T17:19:07.940Z,101444.56
2018-09-27T17:21:35.071Z,101444.11
2018-09-27T17:24:02.303Z,101438.27
2018-09-27T17:26:29.535Z,101438.09
2018-09-27T17:28:56.540Z,101446.36
2018-09-27T17:31:23.600Z,101440.42
2018-09-27T17:33:50.671Z,101440.23
2018-09-27T17:36:18.327Z,101432.07
2018-09-27T17:38:45.456Z,101435.88
2018-09-27T17:41:12.480Z,101430.39
2018-09-27T17:43:39.660Z,101429.75
2018-09-27T17:46:08.745Z,101429.66
2018-09-27T17:48:36.027Z,101424.58
2018-09-27T17:51:03.290Z,101424.94
2018-09-27T17:53:30.942Z,101422.59
2018-09-27T17:55:58.062Z,101424.08
2018-09-27T17:58:25.424Z,101422.31
2018-09-27T18:00:52.889Z,101418.86
2018-09-27T18:03:20.081Z,101416.23
2018-09-27T18:05:47.413Z,101418.72
2018-09-27T18:08:14.659Z,101420.13
2018-09-27T18:10:41.895Z,101417.91
2018-09-27T18:13:09.367Z,101414.59
2018-09-27T18:15:36.631Z,101410.05
2018-09-27T18:18:04.083Z,101403.02
2018-09-27T18:20:31.307Z,101408.23
2018-09-27T18:22:58.641Z,101406.23
2018-09-27T18:25:26.027Z,101410.25
2018-09-27T18:27:53.625Z,101401.90
2018-09-27T18:30:21.197Z,101404.44
2018-09-27T18:32:48.409Z,101407.58
2018-09-27T18:35:15.590Z,101400.03
2018-09-27T18:37:42.780Z,101400.70
2018-09-27T18:40:09.887Z,101403.09
2018-09-27T18:42:37.151Z,101402.34
2018-09-27T18:45:04.484Z,101397.13
2018-09-27T18:47:31.728Z,101392.23
2018-09-27T18:49:59.028Z,101386.63
2018-09-27T18:52:26.268Z,101382.59
2018-09-27T18:54:53.240Z,101384.41
2018-09-27T18:57:20.239Z,101383.75
2018-09-27T18:59:47.380Z,101374.23
2018-09-27T19:02:14.448Z,101371.09
2018-09-27T19:04:41.452Z,101366.73
2018-09-27T19:07:08.652Z,101366.99
2018-09-27T19:09:36.013Z,101368.00
2018-09-27T19:12:03.228Z,101363.56
2018-09-27T19:14:30.486Z,101366.09
2018-09-27T19:16:57.808Z,101359.70
2018-09-27T19:19:24.982Z,101356.96
2018-09-27T19:21:52.207Z,101350.62
2018-09-27T19:24:19.323Z,101350.62
2018-09-27T19:26:46.585Z,101346.32
2018-09-27T19:29:13.784Z,101344.68
2018-09-27T19:31:40.961Z,101345.45
2018-09-27T19:34:08.295Z,101339.38
2018-09-27T19:36:35.688Z,101336.38
2018-09-27T19:39:03.073Z,101329.95
2018-09-27T19:41:30.279Z,101325.77
2018-09-27T19:43:58.029Z,101320.95
2018-09-27T19:46:25.603Z,101318.33
2018-09-27T19:48:52.796Z,101313.98
2018-09-27T19:51:22.363Z,101307.84
2018-09-27T19:53:49.630Z,101308.09
2018-09-27T19:56:17.500Z,101306.67
2018-09-27T19:58:44.768Z,101303.81
2018-09-27T20:01:12.204Z,101302.02
2018-09-27T20:03:39.590Z,101299.55
2018-09-27T20:06:08.805Z,101300.81
2018-09-27T20:08:39.319Z,101301.78
2018-09-27T20:11:06.352Z,101297.84
2018-09-27T20:13:36.642Z,101297.31
2018-09-27T20:16:03.755Z,101297.69
2018-09-27T20:18:31.081Z,101294.69
2018-09-27T20:20:58.307Z,101290.89
2018-09-27T20:23:25.396Z,101289.06
2018-09-27T20:25:52.672Z,101289.32
2018-09-27T20:28:20.065Z,101283.33
2018-09-27T20:30:47.945Z,101281.45
2018-09-27T20:33:15.315Z,101278.77
2018-09-27T20:35:42.942Z,101273.20
2018-09-27T20:38:10.649Z,101259.27
2018-09-27T20:40:40.735Z,101264.83
2018-09-27T20:43:08.114Z,101255.16
2018-09-27T20:45:35.441Z,101256.48
2018-09-27T20:48:02.656Z,101267.52
2018-09-27T20:50:29.831Z,101271.92
2018-09-27T20:52:57.014Z,101268.59
2018-09-27T20:55:25.343Z,101267.63
2018-09-27T20:57:54.570Z,101271.78
2018-09-27T21:00:23.408Z,101259.77
2018-09-27T21:02:50.790Z,101265.95
2018-09-27T21:05:21.575Z,101256.93
2018-09-27T21:07:48.946Z,101254.24
2018-09-27T21:10:16.809Z,101252.11
2018-09-27T21:12:44.361Z,101256.38
2018-09-27T21:15:12.145Z,101256.72
2018-09-27T21:17:40.553Z,101253.78
2018-09-27T21:20:07.525Z,101257.73
2018-09-27T21:22:39.289Z,101252.72
2018-09-27T21:25:16.950Z,101247.60
2018-09-27T21:27:47.364Z,101248.38
2018-09-27T21:30:16.685Z,101246.80
2018-09-27T21:32:45.611Z,101243.55
2018-09-27T21:35:17.896Z,101248.97
2018-09-27T21:37:44.856Z,101255.70
2018-09-27T21:40:14.251Z,101246.44
2018-09-27T21:42:45.494Z,101251.05
2018-09-27T21:45:15.785Z,101253.23
2018-09-27T21:48:02.662Z,101253.23
2018-09-27T21:50:36.684Z,101260.03
2018-09-27T21:53:08.063Z,101270.41
2018-09-27T21:55:38.211Z,101266.36
2018-09-27T21:58:09.899Z,101261.30
2018-09-27T22:00:43.500Z,101263.52
2018-09-27T22:03:15.667Z,101257.63
2018-09-27T22:06:03.566Z,101264.02
2018-09-27T22:08:41.364Z,101261.03
2018-09-27T22:11:19.223Z,101262.55
2018-09-27T22:16:30.632Z,101266.95
2018-09-27T22:19:09.092Z,101265.38
2018-09-27T22:21:40.436Z,101258.95
2018-09-27T22:24:15.408Z,101256.39
2018-09-27T22:26:46.307Z,101252.16
2018-09-27T22:29:17.635Z,101247.24
2018-09-27T22:31:47.236Z,101246.80
2018-09-27T22:34:21.893Z,101241.25
2018-09-27T22:36:57.464Z,101242.80
2018-09-27T22:39:27.947Z,101246.13
2018-09-27T22:41:59.570Z,101250.23
2018-09-27T22:44:31.181Z,101245.42
2018-09-27T22:47:02.340Z,101257.44
2018-09-27T22:49:39.437Z,101259.32
2018-09-27T22:52:12.908Z,101271.75
2018-09-27T22:54:50.782Z,101265.14
2018-09-27T22:57:20.915Z,101256.34
2018-09-27T22:59:48.575Z,101267.03
2018-09-27T23:02:20.504Z,101275.89
2018-09-27T23:04:52.825Z,101276.50
2018-09-27T23:07:24.425Z,101274.05
2018-09-27T23:09:54.903Z,101263.07
2018-09-27T23:12:27.459Z,101271.19
2018-09-27T23:14:59.524Z,101272.53
2018-09-27T23:17:33.918Z,101267.01
2018-09-27T23:20:04.171Z,101261.95
2018-09-27T23:22:36.508Z,101274.67
2018-09-27T23:25:07.914Z,101264.16
2018-09-27T23:27:40.898Z,101268.25
2018-09-27T23:30:13.310Z,101269.05
2018-09-27T23:32:44.919Z,101278.00
2018-09-27T23:35:19.370Z,101271.71
2018-09-27T23:37:46.532Z,101277.91
2018-09-27T23:40:13.506Z,101268.73
2018-09-27T23:42:40.483Z,101270.17
2018-09-27T23:45:07.682Z,101265.49
2018-09-27T23:47:34.664Z,101271.28
2018-09-27T23:50:01.729Z,101272.34
2018-09-27T23:52:28.805Z,101276.06
2018-09-27T23:54:56.063Z,101275.49
2018-09-27T23:57:23.144Z,101272.13
2018-09-27T23:59:50.151Z,101275.28
